Time;durP1;ratioP1;P1;durP2;ratioP2;P2;SDS_P1;SDS_P2;PMS_P1;PMS_P2;Temp;Humidity;BMP_temperature;BMP_pressure;BME280_temperature;BME280_humidity;BME280_pressure;Samples;Min_cycle;Max_cycle;Signal;HPM_P1;HPM_P2
2022/10/06 00:00:19;;;;;;;0.68;0.57;;;21.30;57.00;;;;;;6270850;28;20031;-66
2022/10/06 00:03:23;;;;;;;0.40;0.40;;;21.30;57.00;;;;;;6270636;28;20453;-67
2022/10/06 00:06:24;;;;;;;1.25;0.75;;;21.30;57.10;;;;;;6269415;28;20144;-67
2022/10/06 00:09:25;;;;;;;0.60;0.50;;;21.30;57.00;;;;;;6270770;28;20078;-65
2022/10/06 00:12:25;;;;;;;0.70;0.65;;;21.30;57.00;;;;;;6270100;28;20642;-69
2022/10/06 00:15:29;;;;;;;0.68;0.60;;;21.30;57.00;;;;;;6267997;28;20025;-66
2022/10/06 00:18:30;;;;;;;0.70;0.47;;;21.30;57.00;;;;;;6269300;28;20025;-66
2022/10/06 00:21:31;;;;;;;0.43;0.40;;;21.30;57.00;;;;;;6269343;28;20029;-67
2022/10/06 00:24:31;;;;;;;0.65;0.60;;;21.30;57.00;;;;;;6267427;28;20052;-66
2022/10/06 00:27:41;;;;;;;0.55;0.52;;;21.30;57.00;;;;;;6268717;28;20031;-66
2022/10/06 00:30:43;;;;;;;0.95;0.68;;;21.30;57.00;;;;;;6268967;28;20028;-67
2022/10/06 00:33:45;;;;;;;0.70;0.50;;;21.30;57.00;;;;;;6268501;28;20040;-67
2022/10/06 00:36:45;;;;;;;0.60;0.50;;;21.30;57.00;;;;;;6268625;28;20060;-66
2022/10/06 00:39:46;;;;;;;0.60;0.60;;;21.30;57.00;;;;;;6268604;28;20025;-66
2022/10/06 00:43:01;;;;;;;0.47;0.40;;;21.30;57.00;;;;;;6268621;28;20475;-66
2022/10/06 00:46:02;;;;;;;;;;;21.30;57.00;;;;;;6252806;28;20029;-66
2022/10/06 00:49:16;;;;;;;0.50;0.50;;;21.30;57.00;;;;;;6255911;28;19920;-66
2022/10/06 00:52:20;;;;;;;0.60;0.47;;;21.30;57.10;;;;;;6268195;28;20108;-66
2022/10/06 00:55:21;;;;;;;0.77;0.60;;;21.30;57.10;;;;;;6268140;28;20052;-66
2022/10/06 00:58:23;;;;;;;0.40;0.40;;;21.30;57.00;;;;;;6267836;28;20482;-66
2022/10/06 01:01:25;;;;;;;0.60;0.60;;;21.30;57.00;;;;;;6266805;28;20025;-66
2022/10/06 01:04:29;;;;;;;3.35;0.55;;;21.30;57.00;;;;;;6267645;28;20024;-66
2022/10/06 01:07:30;;;;;;;0.40;0.40;;;21.30;57.10;;;;;;6266158;28;20021;-67
2022/10/06 01:10:30;;;;;;;0.45;0.40;;;21.30;57.10;;;;;;6267733;28;20032;-66
2022/10/06 01:13:32;;;;;;;0.60;0.50;;;21.30;57.00;;;;;;6268204;28;20025;-66
2022/10/06 01:16:36;;;;;;;0.40;0.40;;;21.30;57.00;;;;;;6267525;28;20785;-66
2022/10/06 01:19:51;;;;;;;0.50;0.50;;;21.30;57.10;;;;;;6267879;28;20013;-66
2022/10/06 01:22:56;;;;;;;0.40;0.40;;;21.30;57.00;;;;;;6267570;28;20417;-66
2022/10/06 01:25:58;;;;;;;0.90;0.57;;;21.30;57.00;;;;;;6267409;28;20370;-67
2022/10/06 01:29:00;;;;;;;0.75;0.50;;;21.30;57.00;;;;;;6266350;28;20036;-67
2022/10/06 01:32:01;;;;;;;0.40;0.40;;;21.30;57.10;;;;;;6267446;28;20052;-66
2022/10/06 01:35:02;;;;;;;0.45;0.45;;;21.30;57.00;;;;;;6257446;28;20476;-66
2022/10/06 01:38:03;;;;;;;0.32;0.30;;;21.30;57.00;;;;;;6240909;28;20029;-66
2022/10/06 01:41:04;;;;;;;0.40;0.40;;;21.30;57.10;;;;;;6264357;28;20032;-67
2022/10/06 01:44:04;;;;;;;0.30;0.30;;;21.30;57.10;;;;;;6266054;28;20095;-66
2022/10/06 01:47:06;;;;;;;0.40;0.40;;;21.30;57.10;;;;;;6241665;28;20061;-66
2022/10/06 01:50:07;;;;;;;0.50;0.50;;;21.30;57.10;;;;;;6255105;28;20025;-66
2022/10/06 01:53:08;;;;;;;0.50;0.45;;;21.30;57.20;;;;;;6265348;28;20078;-66
2022/10/06 01:56:08;;;;;;;0.47;0.47;;;21.30;57.30;;;;;;6266625;28;20052;-66
2022/10/06 01:59:09;;;;;;;0.50;0.50;;;21.30;57.20;;;;;;6264962;28;20025;-66
2022/10/06 02:02:10;;;;;;;0.88;0.40;;;21.30;57.20;;;;;;6265106;28;20017;-68
2022/10/06 02:05:13;;;;;;;1.52;0.52;;;21.30;57.30;;;;;;6266398;28;20382;-68
2022/10/06 02:08:14;;;;;;;0.60;0.50;;;21.20;57.30;;;;;;6266440;28;20617;-68
2022/10/06 02:11:14;;;;;;;0.32;0.32;;;21.20;57.30;;;;;;6264895;28;20074;-68
2022/10/06 02:14:16;;;;;;;0.43;0.40;;;21.20;57.30;;;;;;6264726;28;20028;-68
2022/10/06 02:17:17;;;;;;;0.20;0.20;;;21.20;57.30;;;;;;6264986;28;20033;-68
2022/10/06 02:20:18;;;;;;;0.90;0.50;;;21.20;57.30;;;;;;6266451;28;20025;-68
2022/10/06 02:23:19;;;;;;;0.40;0.40;;;21.20;57.30;;;;;;6264743;28;20017;-68
2022/10/06 02:26:19;;;;;;;0.50;0.43;;;21.20;57.40;;;;;;6266448;28;20106;-68
2022/10/06 02:29:21;;;;;;;0.35;0.35;;;21.20;57.40;;;;;;6264571;28;20386;-68
2022/10/06 02:32:21;;;;;;;0.68;0.40;;;21.20;57.40;;;;;;6265993;28;20028;-68
2022/10/06 02:35:22;;;;;;;0.90;0.50;;;21.20;57.50;;;;;;6266164;28;20033;-68
2022/10/06 02:38:23;;;;;;;0.63;0.52;;;21.20;57.50;;;;;;6265841;28;20060;-68
2022/10/06 02:41:24;;;;;;;0.30;0.30;;;21.20;57.50;;;;;;6264774;28;20032;-68
2022/10/06 02:44:25;;;;;;;0.57;0.50;;;21.20;57.50;;;;;;6264236;28;20029;-68
2022/10/06 02:47:25;;;;;;;0.40;0.40;;;21.20;57.50;;;;;;6280303;28;20086;-68
2022/10/06 02:50:26;;;;;;;0.50;0.50;;;21.10;57.50;;;;;;6264402;28;20028;-68
2022/10/06 02:53:28;;;;;;;0.40;0.40;;;21.20;57.60;;;;;;6265802;28;20032;-68
2022/10/06 02:56:28;;;;;;;0.40;0.30;;;21.10;57.50;;;;;;6268833;28;20021;-68
2022/10/06 02:59:29;;;;;;;1.10;0.40;;;21.10;57.50;;;;;;6271014;28;20048;-68
2022/10/06 03:02:30;;;;;;;0.70;0.50;;;21.10;57.50;;;;;;6270912;28;20028;-68
2022/10/06 03:05:30;;;;;;;0.40;0.40;;;21.10;57.50;;;;;;6270869;28;20542;-68
2022/10/06 03:08:32;;;;;;;0.68;0.50;;;21.10;57.50;;;;;;6270637;28;20043;-66
2022/10/06 03:11:35;;;;;;;0.50;0.40;;;21.10;57.50;;;;;;6270450;28;20255;-68
2022/10/06 03:14:35;;;;;;;0.68;0.43;;;21.10;57.60;;;;;;6270628;28;20029;-68
2022/10/06 03:17:36;;;;;;;0.50;0.43;;;21.10;57.50;;;;;;6270348;28;20032;-68
2022/10/06 03:20:37;;;;;;;0.50;0.50;;;21.10;57.60;;;;;;6270039;28;20024;-68
2022/10/06 03:23:38;;;;;;;0.50;0.47;;;21.10;57.50;;;;;;6270331;28;20025;-68
2022/10/06 03:26:44;;;;;;;0.40;0.40;;;21.10;57.60;;;;;;6270517;28;20036;-68
2022/10/06 03:29:45;;;;;;;0.60;0.57;;;21.10;57.60;;;;;;6268796;28;20025;-68
2022/10/06 03:32:46;;;;;;;0.52;0.52;;;21.10;57.60;;;;;;6270301;28;20500;-68
2022/10/06 03:35:47;;;;;;;0.40;0.40;;;21.10;57.60;;;;;;6269783;28;20073;-68
2022/10/06 03:38:47;;;;;;;0.47;0.40;;;21.10;57.60;;;;;;6268307;28;20021;-68
2022/10/06 03:41:48;;;;;;;0.30;0.30;;;21.10;57.60;;;;;;6270183;28;20502;-68
2022/10/06 03:44:49;;;;;;;0.68;0.68;;;21.10;57.70;;;;;;6264950;28;20048;-68
2022/10/06 03:47:49;;;;;;;0.55;0.50;;;21.10;57.70;;;;;;6263730;28;20064;-68
2022/10/06 03:50:58;;;;;;;0.55;0.50;;;21.10;57.70;;;;;;6268188;28;20439;-68
2022/10/06 03:54:00;;;;;;;0.50;0.50;;;21.10;57.70;;;;;;6266802;28;20029;-68
2022/10/06 03:57:00;;;;;;;0.43;0.43;;;21.10;57.70;;;;;;6268154;28;20025;-68
2022/10/06 04:00:01;;;;;;;0.40;0.40;;;21.10;57.70;;;;;;6268178;28;20017;-68
2022/10/06 04:03:02;;;;;;;0.40;0.40;;;21.10;57.70;;;;;;6267991;28;20393;-68
2022/10/06 04:06:05;;;;;;;0.55;0.50;;;21.10;57.70;;;;;;6266172;28;20025;-68
2022/10/06 04:09:10;;;;;;;0.45;0.45;;;21.10;57.70;;;;;;6266419;28;20076;-68
2022/10/06 04:12:11;;;;;;;0.73;0.50;;;21.10;57.60;;;;;;6267672;28;20028;-68
2022/10/06 04:15:11;;;;;;;0.90;0.45;;;21.10;57.70;;;;;;6267835;28;20058;-68
2022/10/06 04:18:13;;;;;;;0.82;0.55;;;21.10;57.70;;;;;;6267909;28;20363;-68
2022/10/06 04:21:14;;;;;;;0.30;0.30;;;21.10;57.70;;;;;;6267481;28;20100;-68
2022/10/06 04:24:18;;;;;;;0.68;0.50;;;21.10;57.80;;;;;;6267267;28;20071;-68
2022/10/06 04:27:27;;;;;;;0.40;0.40;;;21.10;57.80;;;;;;6267587;28;20013;-68
2022/10/06 04:30:29;;;;;;;0.40;0.40;;;21.10;57.80;;;;;;6267175;28;20025;-68
2022/10/06 04:33:33;;;;;;;0.40;0.40;;;21.10;57.70;;;;;;6268030;28;20794;-68
2022/10/06 04:36:40;;;;;;;0.50;0.50;;;21.10;57.80;;;;;;6267485;28;20440;-68
2022/10/06 04:39:40;;;;;;;0.68;0.50;;;21.10;57.80;;;;;;6267675;28;20681;-68
2022/10/06 04:42:42;;;;;;;0.40;0.40;;;21.10;57.80;;;;;;6265860;28;20038;-68
2022/10/06 04:45:42;;;;;;;0.30;0.30;;;21.10;57.80;;;;;;6257750;28;20029;-68
2022/10/06 04:48:43;;;;;;;0.32;0.32;;;21.10;57.80;;;;;;6222375;28;1121688;-68
2022/10/06 04:51:44;;;;;;;0.50;0.50;;;21.10;57.80;;;;;;6267538;28;20383;-68
2022/10/06 04:54:44;;;;;;;0.50;0.50;;;21.10;57.80;;;;;;6269342;28;20029;-68
2022/10/06 04:57:46;;;;;;;0.45;0.45;;;21.10;57.80;;;;;;6268204;28;20036;-68
2022/10/06 05:00:47;;;;;;;0.57;0.50;;;21.10;57.80;;;;;;6267152;28;20437;-68
2022/10/06 05:03:51;;;;;;;0.65;0.47;;;21.10;57.80;;;;;;6267463;28;20025;-68
2022/10/06 05:06:51;;;;;;;0.30;0.30;;;21.10;57.80;;;;;;6266756;28;20029;-68
2022/10/06 05:09:52;;;;;;;0.40;0.40;;;21.10;57.80;;;;;;6266662;28;20162;-68
2022/10/06 05:12:52;;;;;;;0.55;0.40;;;21.10;57.80;;;;;;6267807;28;20171;-68
2022/10/06 05:15:58;;;;;;;0.32;0.30;;;21.10;57.80;;;;;;6267351;28;20112;-68
2022/10/06 05:18:58;;;;;;;0.50;0.40;;;21.10;57.80;;;;;;6266516;28;20061;-68
2022/10/06 05:21:59;;;;;;;0.40;0.40;;;21.10;57.80;;;;;;6267594;28;20033;-68
2022/10/06 05:25:00;;;;;;;0.60;0.50;;;21.10;57.80;;;;;;6267276;28;20044;-68
2022/10/06 05:28:00;;;;;;;0.35;0.35;;;21.10;57.80;;;;;;6267449;28;20359;-68
2022/10/06 05:31:04;;;;;;;0.50;0.50;;;21.10;57.80;;;;;;6267247;28;20033;-68
2022/10/06 05:34:05;;;;;;;0.40;0.40;;;21.10;57.80;;;;;;6266999;28;20090;-68
2022/10/06 05:37:06;;;;;;;0.80;0.45;;;21.10;57.80;;;;;;6266872;28;20044;-69
2022/10/06 05:40:07;;;;;;;0.38;0.38;;;21.10;57.80;;;;;;6265777;28;20021;-68
2022/10/06 05:43:08;;;;;;;0.60;0.50;;;21.10;57.80;;;;;;6267034;28;20106;-69
2022/10/06 05:46:18;;;;;;;0.30;0.30;;;21.10;57.80;;;;;;6251265;28;20121;-69
2022/10/06 05:49:19;;;;;;;0.43;0.40;;;21.10;57.80;;;;;;6256592;28;20510;-68
2022/10/06 05:52:20;;;;;;;0.40;0.40;;;21.10;57.80;;;;;;6265295;28;20029;-68
2022/10/06 05:55:20;;;;;;;0.30;0.30;;;21.10;57.80;;;;;;6266480;28;20047;-68
2022/10/06 05:58:21;;;;;;;0.30;0.30;;;21.00;57.80;;;;;;6266431;28;20013;-68
2022/10/06 06:01:26;;;;;;;0.43;0.43;;;21.00;57.80;;;;;;6257165;28;20480;-65
2022/10/06 06:04:27;;;;;;;0.40;0.40;;;21.00;57.80;;;;;;6268825;28;20021;-68
2022/10/06 06:07:28;;;;;;;0.35;0.35;;;21.00;57.80;;;;;;6267720;28;20033;-68
2022/10/06 06:10:28;;;;;;;0.40;0.40;;;21.00;57.80;;;;;;6243777;28;20071;-68
2022/10/06 06:13:29;;;;;;;0.98;0.40;;;21.10;57.80;;;;;;6247806;28;20572;-68
2022/10/06 06:16:30;;;;;;;0.40;0.40;;;21.00;57.80;;;;;;6267901;28;20078;-68
2022/10/06 06:19:31;;;;;;;0.57;0.50;;;21.00;57.80;;;;;;6266523;28;20021;-68
2022/10/06 06:22:32;;;;;;;0.35;0.30;;;21.10;57.80;;;;;;6268209;28;20033;-68
2022/10/06 06:25:32;;;;;;;0.30;0.30;;;21.00;57.80;;;;;;6267772;28;20067;-68
2022/10/06 06:28:35;;;;;;;0.57;0.38;;;21.00;57.80;;;;;;6267851;28;20023;-68
2022/10/06 06:31:42;;;;;;;0.35;0.35;;;21.00;57.80;;;;;;6266573;28;20029;-68
2022/10/06 06:34:43;;;;;;;0.43;0.30;;;21.10;57.90;;;;;;6267469;28;20045;-68
2022/10/06 06:37:45;;;;;;;1.45;0.50;;;21.00;57.80;;;;;;6268169;28;20036;-68
2022/10/06 06:40:46;;;;;;;0.50;0.50;;;21.00;57.80;;;;;;6266603;28;20021;-68
2022/10/06 06:43:47;;;;;;;0.20;0.20;;;21.00;57.80;;;;;;6267684;28;20021;-68
2022/10/06 06:46:48;;;;;;;0.30;0.30;;;21.00;57.80;;;;;;6267330;28;20025;-68
2022/10/06 06:49:49;;;;;;;0.63;0.52;;;21.00;57.80;;;;;;6267333;28;20045;-68
2022/10/06 06:52:49;;;;;;;0.40;0.40;;;21.00;57.80;;;;;;6267943;28;20040;-68
2022/10/06 06:55:50;;;;;;;0.30;0.30;;;21.00;57.80;;;;;;6267370;28;20426;-68
2022/10/06 06:58:51;;;;;;;0.40;0.40;;;21.00;57.90;;;;;;6266025;28;20541;-68
2022/10/06 07:01:52;;;;;;;0.57;0.40;;;21.00;57.80;;;;;;6267437;28;20029;-68
2022/10/06 07:04:52;;;;;;;0.77;0.50;;;21.00;57.80;;;;;;6266724;28;20028;-68
2022/10/06 07:07:53;;;;;;;0.43;0.20;;;21.00;57.90;;;;;;6267681;28;20115;-68
2022/10/06 07:10:55;;;;;;;0.52;0.45;;;21.00;57.80;;;;;;6267407;28;20025;-68
2022/10/06 07:14:01;;;;;;;0.20;0.20;;;21.00;57.80;;;;;;6267450;28;20390;-68
2022/10/06 07:27:00;;;;;;;0.30;0.30;;;21.00;57.80;;;;;;6267221;28;20029;-68
2022/10/06 07:30:06;;;;;;;0.47;0.38;;;21.00;57.80;;;;;;6267846;28;20850;-68
2022/10/06 07:33:08;;;;;;;0.35;0.35;;;21.00;57.90;;;;;;6267422;28;20075;-68
2022/10/06 07:36:09;;;;;;;0.60;0.50;;;21.00;57.90;;;;;;6267107;28;20021;-68
2022/10/06 07:39:10;;;;;;;0.55;0.35;;;21.00;57.80;;;;;;6266967;28;20044;-68
2022/10/06 07:42:13;;;;;;;2.00;0.47;;;21.00;57.80;;;;;;6270736;28;20029;-68
2022/10/06 07:45:39;;;;;;;0.30;0.30;;;21.00;57.90;;;;;;6271296;28;20009;-68
2022/10/06 07:48:40;;;;;;;1.63;0.47;;;21.00;57.90;;;;;;6271387;28;20079;-68
2022/10/06 07:51:41;;;;;;;0.60;0.43;;;21.00;57.90;;;;;;6271515;28;20040;-68
2022/10/06 07:54:43;;;;;;;0.50;0.40;;;21.00;57.90;;;;;;6271182;28;20048;-68
2022/10/06 07:57:45;;;;;;;1.48;0.60;;;21.00;57.90;;;;;;6271146;28;20094;-68
2022/10/06 08:00:47;;;;;;;0.70;0.40;;;21.00;57.90;;;;;;6271335;28;20512;-68
2022/10/06 08:03:49;;;;;;;1.25;0.50;;;21.00;57.90;;;;;;6271042;28;20051;-68
2022/10/06 08:06:50;;;;;;;0.95;0.43;;;21.00;57.80;;;;;;6271463;28;20438;-68
2022/10/06 08:09:51;;;;;;;0.43;0.40;;;21.00;57.90;;;;;;6271355;28;20035;-68
2022/10/06 08:12:52;;;;;;;0.75;0.50;;;21.00;57.90;;;;;;6270644;28;20036;-68
2022/10/06 08:15:55;;;;;;;0.50;0.40;;;21.00;57.90;;;;;;6270903;28;20021;-68
2022/10/06 08:18:58;;;;;;;0.38;0.30;;;21.00;57.90;;;;;;6271113;28;20128;-68
2022/10/06 08:21:58;;;;;;;0.43;0.40;;;21.00;57.90;;;;;;6270833;28;20025;-68
2022/10/06 08:24:59;;;;;;;0.60;0.50;;;21.00;57.90;;;;;;6270562;28;20490;-68
2022/10/06 08:28:00;;;;;;;0.47;0.43;;;21.00;57.90;;;;;;6270500;28;20490;-68
2022/10/06 08:31:05;;;;;;;0.68;0.43;;;21.00;57.90;;;;;;6270530;28;20033;-68
2022/10/06 08:34:07;;;;;;;0.70;0.40;;;21.00;57.90;;;;;;6270311;28;20048;-68
2022/10/06 08:37:08;;;;;;;0.40;0.40;;;21.00;57.90;;;;;;6270532;28;20071;-68
2022/10/06 08:40:13;;;;;;;0.47;0.40;;;21.00;57.90;;;;;;6270463;28;20021;-68
2022/10/06 08:43:18;;;;;;;;;;;21.00;57.90;;;;;;6270307;28;20024;-68
2022/10/06 08:46:21;;;;;;;1.43;0.43;;;21.00;58.00;;;;;;6259661;28;19958;-68
2022/10/06 08:49:24;;;;;;;1.08;0.50;;;21.00;57.80;;;;;;6268692;28;20040;-68
2022/10/06 08:52:40;;;;;;;0.85;0.52;;;21.00;57.90;;;;;;6268917;28;20066;-68
2022/10/06 08:55:43;;;;;;;;;;;21.00;57.90;;;;;;6270301;28;20025;-68
2022/10/06 08:58:56;;;;;;;0.40;0.40;;;21.00;57.90;;;;;;6269892;28;19909;-68
2022/10/06 09:01:56;;;;;;;1.35;0.55;;;21.00;58.00;;;;;;6269538;28;20420;-68
2022/10/06 09:05:02;;;;;;;0.50;0.40;;;21.00;57.90;;;;;;6269359;28;20049;-68
2022/10/06 09:08:33;;;;;;;0.55;0.55;;;21.00;57.90;;;;;;6269755;28;20505;-68
2022/10/06 09:11:45;;;;;;;0.30;0.30;;;21.00;57.90;;;;;;6269434;28;20033;-68
2022/10/06 09:14:52;;;;;;;0.43;0.40;;;21.00;57.90;;;;;;6269357;28;20108;-68
2022/10/06 09:18:14;;;;;;;0.73;0.47;;;21.00;57.90;;;;;;6269165;28;20025;-68
2022/10/06 09:21:18;;;;;;;0.68;0.40;;;21.00;57.90;;;;;;6269496;28;20021;-68
2022/10/06 09:24:29;;;;;;;0.80;0.52;;;21.00;57.90;;;;;;6269232;28;20086;-68
2022/10/06 09:27:32;;;;;;;0.50;0.43;;;21.00;57.90;;;;;;6259781;28;20049;-68
2022/10/06 09:30:33;;;;;;;0.98;0.60;;;21.00;57.90;;;;;;6266505;28;20020;-68
2022/10/06 09:33:38;;;;;;;0.50;0.40;;;21.00;57.90;;;;;;6268803;28;20152;-68
2022/10/06 09:36:58;;;;;;;1.38;0.52;;;21.00;57.80;;;;;;6268828;28;20025;-68
2022/10/06 09:39:59;;;;;;;0.77;0.43;;;21.00;57.80;;;;;;6269248;28;20399;-68
2022/10/06 09:43:01;;;;;;;1.10;0.60;;;21.00;57.90;;;;;;6268814;28;20082;-68
2022/10/06 09:46:30;;;;;;;0.80;0.40;;;21.00;57.90;;;;;;6253850;28;20140;-68
2022/10/06 09:49:30;;;;;;;0.30;0.30;;;21.00;57.90;;;;;;6268573;28;20175;-68
2022/10/06 09:52:31;;;;;;;1.13;0.40;;;21.00;57.90;;;;;;6267247;28;20021;-68
2022/10/06 09:55:42;;;;;;;1.13;0.60;;;21.00;57.90;;;;;;6267325;28;20029;-68
2022/10/06 09:58:55;;;;;;;0.57;0.50;;;21.00;57.80;;;;;;6268381;28;20052;-68
2022/10/06 10:01:58;;;;;;;0.80;0.47;;;21.00;57.80;;;;;;6268260;28;20033;-68
2022/10/06 10:04:59;;;;;;;1.45;0.73;;;21.00;58.00;;;;;;6267849;28;20545;-68
2022/10/06 10:08:07;;;;;;;0.98;0.57;;;21.00;57.70;;;;;;6268571;28;20027;-69
2022/10/06 10:12:23;;;;;;;1.63;0.50;;;21.00;58.00;;;;;;6268497;28;20017;-68
2022/10/06 10:14:37;;;;;;;0.40;0.40;;;21.00;57.90;;;;;;6268104;28;20145;-68
2022/10/06 10:17:54;;;;;;;0.47;0.40;;;21.00;57.90;;;;;;6268027;28;20119;-68
2022/10/06 10:20:58;;;;;;;0.65;0.40;;;21.00;58.00;;;;;;6268547;28;20009;-68
2022/10/06 10:24:01;;;;;;;1.20;0.73;;;21.00;58.00;;;;;;6267941;28;20429;-68
2022/10/06 10:27:14;;;;;;;1.48;0.68;;;21.00;58.00;;;;;;6268334;28;20787;-68
2022/10/06 10:30:14;;;;;;;1.17;0.60;;;21.00;57.90;;;;;;6243292;28;20040;-68
2022/10/06 10:33:28;;;;;;;1.60;0.80;;;21.00;58.00;;;;;;6243748;28;20033;-68
2022/10/06 10:36:36;;;;;;;0.80;0.60;;;21.00;58.00;;;;;;6243214;28;20113;-68
2022/10/06 10:39:40;;;;;;;1.17;0.70;;;21.00;58.00;;;;;;6244055;28;20068;-71
2022/10/06 10:42:55;;;;;;;1.02;0.60;;;21.00;57.90;;;;;;6243376;28;20018;-71
2022/10/06 10:46:15;;;;;;;1.13;0.52;;;21.00;58.20;;;;;;6257384;28;20651;-71
2022/10/06 10:49:27;;;;;;;0.95;0.52;;;21.00;57.90;;;;;;6268469;28;20237;-71
2022/10/06 10:52:34;;;;;;;1.80;0.88;;;21.00;57.90;;;;;;6267014;28;20041;-72
2022/10/06 10:55:41;;;;;;;1.48;0.63;;;21.00;58.00;;;;;;6247468;28;20043;-71
2022/10/06 10:58:44;;;;;;;1.08;0.50;;;21.00;57.80;;;;;;6264329;28;20401;-71
2022/10/06 11:02:00;;;;;;;0.93;0.65;;;21.00;57.80;;;;;;6264700;28;20029;-70
2022/10/06 11:05:11;;;;;;;0.93;0.50;;;21.00;57.90;;;;;;6264156;28;20029;-71
2022/10/06 11:08:21;;;;;;;1.23;0.60;;;21.00;57.70;;;;;;6264545;28;20025;-72
2022/10/06 11:11:36;;;;;;;0.88;0.57;;;21.00;57.90;;;;;;6264877;28;20398;-71
2022/10/06 11:15:10;;;;;;;2.47;0.82;;;21.00;57.60;;;;;;6265590;28;20059;-71
2022/10/06 11:18:40;;;;;;;1.00;0.65;;;21.00;57.90;;;;;;6201041;28;20033;-71
2022/10/06 11:21:49;;;;;;;0.73;0.65;;;21.00;57.90;;;;;;6270209;28;20029;-71
2022/10/06 11:25:12;;;;;;;1.33;0.50;;;21.00;57.90;;;;;;6270084;28;20056;-71
2022/10/06 11:28:21;;;;;;;1.20;0.57;;;21.00;57.90;;;;;;6268451;28;20017;-71
2022/10/06 11:32:02;;;;;;;1.25;0.60;;;21.00;57.90;;;;;;6248205;28;20555;-71
2022/10/06 11:35:16;;;;;;;2.03;0.63;;;21.00;57.90;;;;;;6247445;28;20517;-71
2022/10/06 11:38:34;;;;;;;1.25;0.77;;;21.00;57.90;;;;;;6246326;28;20025;-71
2022/10/06 11:41:42;;;;;;;0.60;0.60;;;21.00;57.90;;;;;;6247305;28;20021;-71
2022/10/06 11:44:58;;;;;;;0.85;0.40;;;21.00;58.00;;;;;;6256623;28;20021;-71
2022/10/06 11:48:28;;;;;;;0.50;0.50;;;21.00;57.90;;;;;;6271177;28;20056;-71
2022/10/06 11:51:30;;;;;;;0.95;0.63;;;21.00;57.70;;;;;;6271051;28;20055;-71
2022/10/06 11:54:39;;;;;;;0.68;0.50;;;21.00;58.00;;;;;;6271732;28;20083;-71
2022/10/06 11:58:09;;;;;;;0.82;0.50;;;21.00;58.00;;;;;;6272067;28;20036;-71
2022/10/06 12:01:30;;;;;;;1.05;0.43;;;21.00;58.00;;;;;;6272301;28;20517;-70
2022/10/06 12:04:30;;;;;;;0.70;0.60;;;21.00;58.00;;;;;;6271825;28;20043;-70
2022/10/06 12:07:51;;;;;;;1.20;0.57;;;21.00;58.00;;;;;;6270876;28;20288;-70
2022/10/06 12:10:52;;;;;;;1.25;0.70;;;21.00;58.00;;;;;;6271496;28;20500;-70
2022/10/06 12:13:59;;;;;;;0.90;0.50;;;21.00;58.00;;;;;;6271423;28;20029;-68
2022/10/06 12:17:38;;;;;;;1.42;0.88;;;21.00;58.00;;;;;;6261490;28;20024;-70
2022/10/06 12:21:27;;;;;;;1.25;0.60;;;21.00;58.00;;;;;;6266335;28;20113;-70
2022/10/06 12:24:40;;;;;;;0.85;0.47;;;21.00;57.90;;;;;;6238552;28;20060;-70
2022/10/06 12:28:13;;;;;;;1.17;0.50;;;21.00;58.00;;;;;;6253850;28;20017;-70
2022/10/06 12:31:53;;;;;;;4.25;0.70;;;21.00;58.20;;;;;;6262051;28;20105;-70
2022/10/06 12:35:02;;;;;;;4.13;0.80;;;21.10;57.50;;;;;;6267547;28;20082;-70
2022/10/06 12:38:29;;;;;;;0.68;0.50;;;21.10;57.30;;;;;;6260677;28;20021;-70
2022/10/06 12:41:57;;;;;;;5.88;0.50;;;21.10;57.60;;;;;;6244701;28;20061;-69
2022/10/06 12:44:57;;;;;;;4.55;0.70;;;21.00;57.50;;;;;;6264222;28;20055;-70
2022/10/06 12:48:01;;;;;;;3.20;0.57;;;21.00;57.50;;;;;;6269519;28;20045;-70
2022/10/06 12:51:37;;;;;;;3.40;0.85;;;21.00;58.20;;;;;;6270403;28;20071;-69
2022/10/06 12:54:54;;;;;;;3.08;0.60;;;21.00;57.90;;;;;;6269743;28;20056;-68
2022/10/06 12:57:55;;;;;;;2.58;0.60;;;21.00;57.70;;;;;;6269464;28;20051;-69
2022/10/06 13:01:01;;;;;;;9.30;1.20;;;21.00;57.50;;;;;;6269068;28;20025;-69
2022/10/06 13:04:02;;;;;;;3.83;0.93;;;21.00;56.60;;;;;;6253514;28;20044;-69
2022/10/06 13:07:17;;;;;;;5.38;1.02;;;21.00;56.50;;;;;;6262703;28;20021;-69
2022/10/06 13:10:19;;;;;;;9.15;1.63;;;21.00;55.10;;;;;;6262626;28;20021;-69
2022/10/06 13:13:23;;;;;;;4.78;1.20;;;21.00;54.50;;;;;;6259051;28;20116;-69
2022/10/06 13:16:35;;;;;;;5.85;1.10;;;21.00;54.20;;;;;;6255725;28;20037;-69
2022/10/06 13:19:37;;;;;;;8.75;1.75;;;21.00;53.90;;;;;;6263448;28;20037;-69
2022/10/06 13:22:38;;;;;;;6.55;1.38;;;21.00;53.60;;;;;;6267204;28;20017;-69
2022/10/06 13:25:52;;;;;;;6.05;0.88;;;21.00;53.30;;;;;;6256382;28;20066;-69
2022/10/06 13:28:59;;;;;;;6.32;1.13;;;21.00;53.60;;;;;;6267644;28;20033;-69
2022/10/06 13:32:01;;;;;;;5.10;1.30;;;21.00;53.60;;;;;;6267706;28;20029;-69
2022/10/06 13:35:03;;;;;;;5.00;1.05;;;21.00;53.60;;;;;;6267386;28;20113;-69
2022/10/06 13:38:03;;;;;;;6.40;1.05;;;21.00;54.10;;;;;;6267201;28;20029;-70
2022/10/06 13:41:12;;;;;;;5.13;1.13;;;21.00;53.00;;;;;;6248936;28;20028;-69
2022/10/06 13:44:22;;;;;;;5.50;1.08;;;21.00;53.20;;;;;;6267776;28;20024;-70
2022/10/06 13:47:25;;;;;;;8.02;1.30;;;21.00;53.60;;;;;;6251216;28;20036;-69
2022/10/06 13:50:27;;;;;;;9.13;1.23;;;21.00;54.30;;;;;;6267975;28;20070;-70
2022/10/06 13:53:30;;;;;;;5.40;0.98;;;21.00;54.90;;;;;;6267864;28;20028;-70
2022/10/06 13:56:37;;;;;;;6.28;1.30;;;21.00;55.20;;;;;;6269573;28;20029;-70
2022/10/06 13:59:37;;;;;;;4.57;1.23;;;21.00;55.40;;;;;;6269215;28;20029;-70
2022/10/06 14:02:39;;;;;;;3.15;1.10;;;21.00;55.30;;;;;;6269329;28;20028;-70
2022/10/06 14:05:44;;;;;;;7.38;1.25;;;21.00;55.40;;;;;;6251445;28;20540;-70
2022/10/06 14:08:50;;;;;;;4.78;1.00;;;21.00;55.60;;;;;;6268604;28;20554;-70
2022/10/06 14:12:04;;;;;;;3.25;1.05;;;21.00;55.60;;;;;;6269405;28;20100;-71
2022/10/06 14:15:19;;;;;;;3.95;1.10;;;21.00;56.20;;;;;;6269056;28;20016;-70
2022/10/06 14:18:32;;;;;;;3.53;1.03;;;21.00;56.40;;;;;;6267074;28;20063;-70
2022/10/06 14:21:38;;;;;;;3.28;1.00;;;20.90;56.30;;;;;;6268986;28;20269;-69
2022/10/06 14:24:49;;;;;;;4.47;1.00;;;21.00;56.20;;;;;;6267433;28;20112;-68
2022/10/06 14:27:51;;;;;;;3.85;0.63;;;21.00;56.30;;;;;;6269832;28;20083;-69
2022/10/06 14:30:52;;;;;;;5.15;1.13;;;21.00;56.00;;;;;;6267337;28;20503;-70
2022/10/06 14:33:55;;;;;;;1.75;0.80;;;21.00;56.00;;;;;;6268733;28;20028;-70
2022/10/06 14:36:56;;;;;;;2.47;0.70;;;21.10;56.20;;;;;;6254771;28;20028;-67
2022/10/06 14:39:57;;;;;;;1.58;0.90;;;21.10;56.00;;;;;;6249476;28;20029;-69
2022/10/06 14:42:57;;;;;;;4.10;0.73;;;21.10;55.90;;;;;;6267578;28;20075;-69
2022/10/06 14:45:59;;;;;;;3.72;0.80;;;21.10;56.20;;;;;;6252671;28;20033;-69
2022/10/06 14:49:04;;;;;;;4.43;1.40;;;21.00;56.20;;;;;;6240620;28;20135;-70
2022/10/06 14:52:05;;;;;;;2.15;0.63;;;21.00;56.30;;;;;;6270111;28;20120;-69
2022/10/06 14:55:07;;;;;;;8.20;0.90;;;21.00;56.10;;;;;;6270397;28;20119;-69
2022/10/06 14:58:07;;;;;;;2.63;0.93;;;21.00;56.00;;;;;;6271489;28;20085;-69
2022/10/06 15:01:13;;;;;;;1.60;0.75;;;21.00;56.00;;;;;;6257866;28;20048;-69
2022/10/06 15:04:17;;;;;;;3.00;0.77;;;21.00;56.10;;;;;;6247128;28;20053;-69
2022/10/06 15:10:38;;;;;;;3.78;0.98;;;21.00;56.30;;;;;;6262016;28;20490;-70
2022/10/06 15:13:39;;;;;;;4.32;0.98;;;20.90;56.00;;;;;;6247128;28;20140;-69
2022/10/06 15:16:42;;;;;;;5.18;1.50;;;21.00;56.50;;;;;;6246951;28;20425;-67
2022/10/06 15:19:43;;;;;;;3.17;1.30;;;21.00;56.40;;;;;;6247216;28;20071;-67
2022/10/06 15:22:44;;;;;;;5.97;1.30;;;20.90;56.20;;;;;;6262315;28;20033;-69
2022/10/06 15:29:12;;;;;;;7.90;1.80;;;21.00;56.30;;;;;;6246852;28;20025;-70
2022/10/06 15:32:14;;;;;;;2.15;1.05;;;21.00;56.20;;;;;;6246835;28;20018;-69
2022/10/06 15:35:15;;;;;;;4.85;1.50;;;20.90;56.20;;;;;;6273339;28;20028;-71
2022/10/06 15:38:16;;;;;;;4.78;1.48;;;21.00;56.00;;;;;;6249064;28;20029;-67
2022/10/06 15:41:18;;;;;;;3.55;1.33;;;21.00;55.80;;;;;;6246239;28;20035;-70
2022/10/06 15:44:19;;;;;;;3.67;1.45;;;21.00;56.00;;;;;;6248362;28;20363;-67
2022/10/06 15:47:20;;;;;;;7.38;1.90;;;21.00;55.90;;;;;;6271735;28;20021;-69
2022/10/06 15:50:21;;;;;;;5.57;1.55;;;20.90;55.60;;;;;;6271778;28;20063;-69
2022/10/06 15:53:22;;;;;;;5.95;1.50;;;21.00;55.80;;;;;;6271369;28;20470;-66
2022/10/06 15:56:24;;;;;;;7.05;1.50;;;20.90;55.80;;;;;;6271967;28;20553;-70
2022/10/06 15:59:26;;;;;;;8.55;1.70;;;21.00;56.10;;;;;;6270519;28;20073;-69
2022/10/06 16:02:33;;;;;;;6.90;1.50;;;21.00;56.10;;;;;;6271345;28;20032;-69
2022/10/06 16:05:48;;;;;;;5.72;1.73;;;21.00;56.10;;;;;;6270705;28;20028;-70
2022/10/06 16:08:49;;;;;;;5.53;1.27;;;20.90;55.70;;;;;;6271731;28;20040;-69
2022/10/06 16:11:50;;;;;;;4.03;1.30;;;20.90;56.40;;;;;;6258673;28;20029;-70
2022/10/06 16:14:50;;;;;;;5.95;1.27;;;20.90;56.00;;;;;;6270778;28;20588;-71
2022/10/06 16:17:51;;;;;;;3.80;1.33;;;20.90;55.60;;;;;;6269800;28;20079;-70
2022/10/06 16:20:53;;;;;;;9.23;1.30;;;20.90;55.80;;;;;;6260244;28;20026;-70